createdAt,value
2018-11-27T00:00:18.176Z,80.30
2018-11-27T00:02:46.161Z,80.30
2018-11-27T00:05:14.125Z,80.20
2018-11-27T00:07:42.130Z,80.20
2018-11-27T00:10:10.400Z,80.10
2018-11-27T00:12:38.369Z,80.20
2018-11-27T00:15:11.420Z,80.00
2018-11-27T00:17:39.459Z,79.90
2018-11-27T00:20:10.562Z,79.70
2018-11-27T00:22:39.104Z,79.90
2018-11-27T00:25:09.919Z,79.90
2018-11-27T00:27:37.997Z,79.80
2018-11-27T00:30:08.179Z,79.60
2018-11-27T00:32:36.544Z,79.80
2018-11-27T00:35:05.518Z,79.70
2018-11-27T00:37:33.475Z,79.70
2018-11-27T00:40:01.510Z,79.90
2018-11-27T00:42:29.473Z,79.80
2018-11-27T00:44:57.524Z,79.70
2018-11-27T00:47:25.487Z,79.70
2018-11-27T00:49:53.466Z,80.00
2018-11-27T00:52:21.428Z,80.00
2018-11-27T00:54:49.480Z,79.80
2018-11-27T00:57:17.486Z,80.20
2018-11-27T00:59:45.648Z,80.20
2018-11-27T01:02:13.600Z,80.20
2018-11-27T01:04:41.625Z,80.10
2018-11-27T01:07:09.631Z,80.60
2018-11-27T01:09:37.630Z,80.50
2018-11-27T01:12:05.701Z,80.20
2018-11-27T01:14:33.676Z,80.60
2018-11-27T01:17:01.601Z,80.30
2018-11-27T01:19:29.533Z,80.20
2018-11-27T01:21:57.589Z,80.20
2018-11-27T01:24:25.554Z,80.10
2018-11-27T01:26:53.521Z,79.80
2018-11-27T01:29:21.528Z,80.30
2018-11-27T01:31:49.495Z,80.30
2018-11-27T01:34:17.461Z,80.30
2018-11-27T01:36:45.668Z,80.50
2018-11-27T01:39:13.707Z,80.30
2018-11-27T01:41:41.669Z,80.10
2018-11-27T01:44:09.597Z,80.00
2018-11-27T01:46:37.593Z,80.00
2018-11-27T01:49:06.169Z,80.00
2018-11-27T01:51:34.126Z,79.80
2018-11-27T01:54:02.074Z,79.90
2018-11-27T01:56:30.004Z,79.70
2018-11-27T01:58:57.952Z,79.70
2018-11-27T02:01:25.917Z,79.90
2018-11-27T02:03:53.874Z,80.00
2018-11-27T02:06:21.831Z,79.80
2018-11-27T02:08:49.908Z,79.70
2018-11-27T02:11:17.830Z,79.90
2018-11-27T02:13:45.791Z,80.00
2018-11-27T02:16:13.754Z,79.90
2018-11-27T02:18:41.692Z,80.40
2018-11-27T02:21:09.645Z,79.70
2018-11-27T02:23:37.611Z,79.80
2018-11-27T02:26:05.643Z,79.90
2018-11-27T02:28:33.626Z,79.90
2018-11-27T02:31:01.567Z,79.90
2018-11-27T02:33:29.528Z,79.60
2018-11-27T02:35:57.483Z,79.70
2018-11-27T02:38:25.436Z,79.90
2018-11-27T02:40:53.462Z,79.70
2018-11-27T02:43:21.418Z,79.70
2018-11-27T02:45:49.378Z,79.90
2018-11-27T02:48:17.314Z,79.90
2018-11-27T02:50:45.340Z,79.90
2018-11-27T02:53:13.430Z,79.70
2018-11-27T02:55:41.359Z,79.70
2018-11-27T02:58:09.319Z,79.70
2018-11-27T03:00:37.390Z,79.70
2018-11-27T03:03:06.178Z,79.80
2018-11-27T03:05:36.093Z,79.70
2018-11-27T03:08:04.187Z,79.70
2018-11-27T03:10:32.141Z,79.60
2018-11-27T03:13:00.165Z,79.50
2018-11-27T03:15:28.370Z,79.50
2018-11-27T03:17:56.370Z,79.30
2018-11-27T03:20:24.399Z,79.50
2018-11-27T03:22:52.451Z,79.60
2018-11-27T03:25:21.485Z,79.60
2018-11-27T03:27:50.406Z,79.60
2018-11-27T03:30:20.957Z,79.40
2018-11-27T03:32:48.957Z,79.50
2018-11-27T03:35:19.830Z,79.50
2018-11-27T03:37:47.967Z,79.40
2018-11-27T03:40:25.007Z,79.50
2018-11-27T03:42:52.941Z,79.50
2018-11-27T03:45:21.541Z,79.60
2018-11-27T03:47:49.561Z,79.50
2018-11-27T03:50:21.448Z,79.30
2018-11-27T03:52:49.377Z,80.00
2018-11-27T03:55:17.361Z,79.20
2018-11-27T03:57:45.380Z,79.30
2018-11-27T04:00:18.913Z,79.60
2018-11-27T04:02:50.207Z,80.10
2018-11-27T04:05:18.186Z,79.90
2018-11-27T04:07:46.292Z,79.90
2018-11-27T04:10:15.548Z,79.90
2018-11-27T04:12:43.629Z,79.60
2018-11-27T04:15:12.232Z,80.40
2018-11-27T04:17:40.193Z,79.70
2018-11-27T04:20:09.290Z,79.50
2018-11-27T04:22:37.687Z,79.60
2018-11-27T04:25:10.133Z,79.50
2018-11-27T04:27:38.199Z,79.90
2018-11-27T04:30:08.556Z,79.30
2018-11-27T04:32:37.671Z,79.40
2018-11-27T04:35:06.307Z,79.30
2018-11-27T04:37:34.301Z,79.50
2018-11-27T04:40:02.580Z,79.20
2018-11-27T04:42:30.513Z,79.30
2018-11-27T04:44:58.585Z,79.30
2018-11-27T04:47:26.646Z,79.30
2018-11-27T04:49:54.591Z,78.90
2018-11-27T04:52:22.530Z,79.10
2018-11-27T04:54:50.483Z,78.90
2018-11-27T04:57:18.573Z,79.30
2018-11-27T04:59:46.590Z,79.30
2018-11-27T05:02:14.517Z,79.20
2018-11-27T05:04:42.786Z,79.00
2018-11-27T05:07:10.721Z,79.30
2018-11-27T05:09:38.662Z,79.30
2018-11-27T05:12:06.621Z,79.30
2018-11-27T05:14:34.670Z,79.30
2018-11-27T05:17:02.670Z,79.20
2018-11-27T05:19:30.684Z,79.20
2018-11-27T05:21:59.437Z,78.90
2018-11-27T05:24:27.425Z,79.30
2018-11-27T05:26:55.397Z,79.50
2018-11-27T05:29:23.341Z,79.40
2018-11-27T05:31:51.264Z,79.40
2018-11-27T05:34:19.323Z,79.50
2018-11-27T05:36:47.249Z,79.50
2018-11-27T05:39:15.316Z,79.30
2018-11-27T05:41:43.268Z,79.30
2018-11-27T05:44:11.195Z,79.20
2018-11-27T05:46:39.134Z,79.20
2018-11-27T05:49:07.106Z,79.20
2018-11-27T05:51:35.137Z,79.20
2018-11-27T05:54:03.073Z,79.30
2018-11-27T05:56:31.005Z,79.50
2018-11-27T05:58:58.965Z,79.40
2018-11-27T06:01:26.896Z,79.30
2018-11-27T06:03:54.914Z,79.20
2018-11-27T06:06:22.897Z,79.20
2018-11-27T06:08:50.849Z,78.90
2018-11-27T06:11:18.850Z,78.80
2018-11-27T06:13:46.850Z,79.00
2018-11-27T06:16:14.781Z,79.50
2018-11-27T06:18:42.840Z,80.20
2018-11-27T06:21:10.752Z,79.50
2018-11-27T06:23:38.724Z,79.50
2018-11-27T06:26:06.721Z,79.30
2018-11-27T06:28:34.715Z,79.40
2018-11-27T06:31:03.017Z,79.30
2018-11-27T06:33:31.097Z,80.00
2018-11-27T06:35:59.017Z,79.20
2018-11-27T06:38:27.030Z,79.30
2018-11-27T06:40:55.309Z,79.30
2018-11-27T06:43:23.430Z,79.40
2018-11-27T06:45:51.393Z,79.50
2018-11-27T06:48:19.937Z,79.60
2018-11-27T06:50:48.543Z,79.80
2018-11-27T06:53:16.556Z,79.80
2018-11-27T06:55:44.597Z,79.60
2018-11-27T06:58:12.582Z,79.60
2018-11-27T07:00:40.738Z,79.50
2018-11-27T07:03:10.333Z,79.60
2018-11-27T07:05:38.709Z,79.60
2018-11-27T07:08:07.883Z,79.80
2018-11-27T07:10:36.077Z,79.60
2018-11-27T07:13:14.620Z,79.70
2018-11-27T07:15:42.561Z,79.70
2018-11-27T07:18:10.515Z,79.70
2018-11-27T07:20:38.472Z,79.70
2018-11-27T07:23:07.130Z,79.60
2018-11-27T07:25:35.261Z,79.50
2018-11-27T07:28:03.227Z,79.50
2018-11-27T07:30:31.192Z,79.20
2018-11-27T07:32:59.187Z,79.20
2018-11-27T07:35:27.215Z,79.10
2018-11-27T07:37:55.183Z,79.00
2018-11-27T07:40:24.333Z,79.00
2018-11-27T07:43:09.610Z,78.70
2018-11-27T07:45:37.725Z,78.80
2018-11-27T07:48:06.761Z,78.60
2018-11-27T07:50:35.252Z,78.60
2018-11-27T07:53:03.214Z,78.80
2018-11-27T07:55:31.309Z,78.80
2018-11-27T07:57:59.262Z,79.00
2018-11-27T08:00:27.956Z,79.00
2018-11-27T08:02:57.028Z,79.30
2018-11-27T08:05:35.232Z,79.50
2018-11-27T08:08:03.543Z,79.30
2018-11-27T08:10:32.230Z,79.30
2018-11-27T08:13:00.175Z,79.30
2018-11-27T08:15:29.265Z,79.30
2018-11-27T08:17:57.215Z,79.30
2018-11-27T08:20:26.237Z,79.50
2018-11-27T08:22:54.218Z,79.60
2018-11-27T08:25:22.161Z,79.60
2018-11-27T08:27:50.097Z,79.40
2018-11-27T08:30:19.146Z,79.20
2018-11-27T08:32:47.801Z,79.30
2018-11-27T08:35:17.624Z,79.30
2018-11-27T08:37:46.354Z,79.30
2018-11-27T08:40:15.221Z,79.10
2018-11-27T08:42:43.236Z,78.90
2018-11-27T08:45:14.370Z,78.90
2018-11-27T08:47:42.378Z,78.60
2018-11-27T08:50:12.624Z,78.60
2018-11-27T08:52:46.460Z,78.60
2018-11-27T08:55:10.657Z,78.30
2018-11-27T08:57:38.734Z,78.10
2018-11-27T09:00:11.282Z,78.30
2018-11-27T09:02:39.929Z,78.10
2018-11-27T09:05:07.933Z,77.90
2018-11-27T09:07:35.916Z,78.30
2018-11-27T09:10:04.490Z,77.40
2018-11-27T09:12:32.509Z,77.40
2018-11-27T09:15:00.491Z,77.10
2018-11-27T09:17:28.414Z,77.20
2018-11-27T09:19:56.349Z,77.00
2018-11-27T09:22:24.359Z,77.10
2018-11-27T09:24:52.300Z,76.70
2018-11-27T09:27:20.230Z,76.50
2018-11-27T09:29:48.201Z,76.20
2018-11-27T09:32:16.276Z,76.10
2018-11-27T09:34:44.279Z,76.20
2018-11-27T09:37:12.237Z,76.10
2018-11-27T09:39:40.176Z,76.00
2018-11-27T09:42:08.114Z,76.00
2018-11-27T09:44:36.062Z,76.20
2018-11-27T09:47:04.150Z,76.40
2018-11-27T09:49:32.078Z,76.40
2018-11-27T09:52:00.083Z,76.20
2018-11-27T09:54:28.185Z,75.80
2018-11-27T09:56:56.231Z,75.80
2018-11-27T09:59:24.189Z,76.30
2018-11-27T10:01:52.174Z,75.70
2018-11-27T10:04:20.204Z,75.70
2018-11-27T10:06:48.227Z,75.80
2018-11-27T10:09:16.182Z,75.80
2018-11-27T10:11:44.170Z,75.50
2018-11-27T10:14:12.326Z,75.50
2018-11-27T10:16:40.293Z,75.90
2018-11-27T10:19:08.221Z,75.50
2018-11-27T10:21:36.181Z,75.50
2018-11-27T10:24:04.127Z,75.30
2018-11-27T10:26:32.118Z,75.50
2018-11-27T10:29:00.117Z,75.10
2018-11-27T10:31:28.223Z,75.10
2018-11-27T10:33:56.173Z,74.90
2018-11-27T10:36:24.163Z,75.00
2018-11-27T10:38:52.236Z,75.00
2018-11-27T10:41:20.193Z,74.40
2018-11-27T10:43:48.123Z,74.40
2018-11-27T10:46:16.081Z,74.10
2018-11-27T10:48:44.078Z,75.60
2018-11-27T10:51:12.077Z,76.50
2018-11-27T10:53:40.045Z,76.90
2018-11-27T10:56:08.117Z,77.40
2018-11-27T10:58:36.722Z,77.50
2018-11-27T11:01:09.599Z,77.30
2018-11-27T11:03:37.528Z,77.40
2018-11-27T11:06:06.864Z,77.20
2018-11-27T11:08:34.825Z,77.20
2018-11-27T11:11:02.761Z,77.20
2018-11-27T11:13:30.744Z,76.40
2018-11-27T11:15:58.837Z,76.50
2018-11-27T11:18:26.772Z,76.70
2018-11-27T11:20:54.721Z,76.80
2018-11-27T11:23:22.744Z,76.90
2018-11-27T11:25:50.714Z,76.80
2018-11-27T11:28:20.229Z,76.80
2018-11-27T11:30:48.226Z,76.80
2018-11-27T11:33:16.159Z,76.90
2018-11-27T11:35:44.141Z,76.90
2018-11-27T11:38:12.127Z,76.40
2018-11-27T11:40:40.149Z,76.10
2018-11-27T11:43:08.185Z,76.00
2018-11-27T11:45:36.129Z,75.60
2018-11-27T11:48:04.064Z,75.30
2018-11-27T11:50:34.133Z,74.90
2018-11-27T11:53:07.582Z,74.80
2018-11-27T11:55:35.574Z,74.60
2018-11-27T11:58:03.545Z,74.40
2018-11-27T12:00:34.481Z,74.90
2018-11-27T12:03:02.480Z,75.60
2018-11-27T12:05:30.412Z,75.80
2018-11-27T12:07:58.358Z,76.10
2018-11-27T12:10:26.322Z,76.00
2018-11-27T12:12:54.289Z,75.70
2018-11-27T12:15:22.298Z,76.00
2018-11-27T12:17:51.071Z,76.20
2018-11-27T12:20:19.586Z,76.20
2018-11-27T12:22:49.393Z,76.20
2018-11-27T12:25:17.365Z,76.40
2018-11-27T12:27:45.298Z,76.50
2018-11-27T12:30:19.541Z,76.60
2018-11-27T12:32:47.478Z,76.80
2018-11-27T12:35:16.006Z,76.60
2018-11-27T12:37:44.026Z,76.70
2018-11-27T12:40:13.894Z,76.80
2018-11-27T12:42:41.848Z,76.70
2018-11-27T12:45:13.112Z,76.80
2018-11-27T12:47:41.068Z,76.90
2018-11-27T12:50:13.372Z,76.90
2018-11-27T12:52:41.468Z,76.40
2018-11-27T12:55:12.028Z,76.10
2018-11-27T12:57:39.976Z,76.20
2018-11-27T13:00:15.969Z,76.20
2018-11-27T13:02:44.100Z,76.00
2018-11-27T13:05:13.245Z,75.70
2018-11-27T13:07:41.326Z,75.80
2018-11-27T13:10:13.669Z,75.80
2018-11-27T13:12:42.059Z,75.80
2018-11-27T13:15:11.949Z,75.70
2018-11-27T13:17:40.698Z,75.90
2018-11-27T13:20:12.334Z,75.70
2018-11-27T13:22:40.482Z,75.80
2018-11-27T13:25:12.054Z,75.90
2018-11-27T13:27:40.055Z,75.70
2018-11-27T13:31:16.385Z,75.30
2018-11-27T13:33:49.291Z,75.50
2018-11-27T13:36:17.342Z,75.40
2018-11-27T13:38:45.312Z,75.10
2018-11-27T13:41:13.386Z,74.80
2018-11-27T13:43:41.352Z,74.50
2018-11-27T13:46:09.633Z,74.10
2018-11-27T13:48:37.600Z,74.60
2018-11-27T13:51:06.285Z,74.40
2018-11-27T13:53:34.699Z,73.90
2018-11-27T13:56:02.593Z,73.70
2018-11-27T13:58:30.613Z,73.20
2018-11-27T14:00:58.648Z,72.50
2018-11-27T14:03:26.650Z,72.50
2018-11-27T14:05:54.593Z,73.20
2018-11-27T14:08:22.545Z,73.50
2018-11-27T14:10:50.571Z,74.10
2018-11-27T14:13:18.500Z,72.60
2018-11-27T14:15:46.503Z,72.30
2018-11-27T14:18:14.580Z,72.20
2018-11-27T14:20:42.545Z,72.50
2018-11-27T14:23:10.511Z,72.70
2018-11-27T14:25:38.635Z,72.90
2018-11-27T14:28:06.555Z,73.00
2018-11-27T14:30:34.485Z,73.20
2018-11-27T14:33:02.499Z,73.50
2018-11-27T14:35:30.433Z,73.40
2018-11-27T14:37:58.432Z,73.50
2018-11-27T14:40:27.321Z,73.70
2018-11-27T14:42:55.390Z,73.90
2018-11-27T14:45:24.582Z,74.00
2018-11-27T14:47:53.819Z,74.10
2018-11-27T14:50:21.861Z,74.40
2018-11-27T14:52:49.861Z,74.40
2018-11-27T14:55:25.329Z,74.60
2018-11-27T14:57:53.439Z,74.70
2018-11-27T15:00:22.512Z,75.10
2018-11-27T15:02:50.718Z,75.10
2018-11-27T15:05:21.332Z,75.30
2018-11-27T15:07:49.328Z,75.40
2018-11-27T15:10:17.286Z,75.40
2018-11-27T15:12:45.229Z,75.50
2018-11-27T15:15:13.727Z,75.50
2018-11-27T15:17:41.685Z,75.70
2018-11-27T15:20:11.557Z,75.80
2018-11-27T15:22:39.595Z,75.80
2018-11-27T15:25:07.883Z,76.80
2018-11-27T15:27:36.692Z,75.90
2018-11-27T15:30:10.866Z,76.00
2018-11-27T15:32:39.157Z,76.10
2018-11-27T15:35:07.448Z,76.10
2018-11-27T15:37:35.405Z,76.10
2018-11-27T15:40:03.410Z,76.20
2018-11-27T15:42:31.369Z,76.40
2018-11-27T15:45:00.099Z,76.50
2018-11-27T15:47:28.052Z,76.50
2018-11-27T15:49:56.121Z,76.50
2018-11-27T15:52:24.257Z,76.80
2018-11-27T15:54:52.189Z,76.90
2018-11-27T15:57:20.202Z,77.10
2018-11-27T15:59:48.584Z,77.10
2018-11-27T16:02:16.522Z,76.90
2018-11-27T16:04:44.452Z,77.10
2018-11-27T16:07:12.610Z,77.10
2018-11-27T16:09:40.548Z,77.30
2018-11-27T16:12:08.557Z,77.40
2018-11-27T16:14:36.592Z,77.80
2018-11-27T16:17:04.669Z,77.90
2018-11-27T16:19:32.632Z,77.90
2018-11-27T16:22:00.791Z,77.70
2018-11-27T16:24:28.732Z,77.50
2018-11-27T16:26:56.664Z,77.50
2018-11-27T16:29:24.651Z,77.50
2018-11-27T16:31:53.217Z,77.60
2018-11-27T16:34:21.150Z,78.50
2018-11-27T16:36:49.142Z,77.70
2018-11-27T16:39:17.098Z,77.90
2018-11-27T16:41:45.045Z,77.90
2018-11-27T16:44:13.039Z,77.90
2018-11-27T16:46:40.981Z,78.00
2018-11-27T16:49:09.157Z,78.20
2018-11-27T16:51:37.137Z,78.20
2018-11-27T16:54:05.713Z,78.00
2018-11-27T16:56:33.689Z,77.80
2018-11-27T16:59:01.858Z,77.80
2018-11-27T17:01:29.793Z,77.80
2018-11-27T17:03:57.754Z,78.00
2018-11-27T17:06:25.731Z,78.10
2018-11-27T17:08:53.737Z,78.10
2018-11-27T17:11:21.770Z,77.90
2018-11-27T17:13:49.914Z,78.10
2018-11-27T17:16:17.896Z,78.30
2018-11-27T17:18:45.830Z,78.50
2018-11-27T17:21:13.826Z,78.80
2018-11-27T17:23:41.800Z,78.90
2018-11-27T17:26:09.784Z,78.90
2018-11-27T17:28:37.736Z,78.90
2018-11-27T17:31:13.010Z,79.10
2018-11-27T17:33:45.970Z,79.00
2018-11-27T17:36:13.916Z,79.00
2018-11-27T17:38:41.860Z,79.00
2018-11-27T17:41:13.579Z,79.20
2018-11-27T17:43:41.593Z,79.20
2018-11-27T17:46:09.671Z,79.30
2018-11-27T17:48:37.892Z,79.60
2018-11-27T17:51:06.685Z,79.70
2018-11-27T17:53:34.639Z,79.80
2018-11-27T17:56:02.566Z,79.90
2018-11-27T17:58:30.699Z,80.20
2018-11-27T18:00:58.685Z,80.00
2018-11-27T18:03:26.749Z,79.90
2018-11-27T18:05:54.794Z,80.00
2018-11-27T18:08:22.855Z,80.00
2018-11-27T18:10:50.785Z,80.00
2018-11-27T18:13:18.827Z,79.90
2018-11-27T18:15:46.821Z,80.00
2018-11-27T18:18:14.797Z,79.90
2018-11-27T18:20:42.754Z,79.90
2018-11-27T18:23:10.721Z,80.00
2018-11-27T18:25:38.688Z,80.10
2018-11-27T18:28:06.637Z,79.80
2018-11-27T18:30:34.608Z,79.70
2018-11-27T18:33:02.569Z,79.90
2018-11-27T18:35:30.516Z,80.10
2018-11-27T18:37:58.567Z,80.10
2018-11-27T18:40:26.543Z,80.00
2018-11-27T18:42:54.469Z,79.90
2018-11-27T18:45:25.168Z,80.00
2018-11-27T18:47:53.142Z,79.90
2018-11-27T18:50:22.169Z,79.90
2018-11-27T18:52:50.151Z,80.00
2018-11-27T18:55:18.086Z,79.90
2018-11-27T18:57:46.906Z,80.00
2018-11-27T19:00:17.113Z,80.00
2018-11-27T19:02:45.271Z,80.20
2018-11-27T19:05:13.297Z,80.80
2018-11-27T19:07:41.377Z,80.30
2018-11-27T19:10:15.567Z,80.40
2018-11-27T19:12:43.636Z,80.40
2018-11-27T19:15:16.093Z,80.40
2018-11-27T19:17:45.370Z,80.60
2018-11-27T19:20:13.368Z,80.00
2018-11-27T19:22:41.333Z,80.60
2018-11-27T19:25:13.522Z,80.70
2018-11-27T19:27:45.675Z,80.80
2018-11-27T19:30:19.873Z,80.80
2018-11-27T19:32:47.872Z,80.70
2018-11-27T19:35:16.909Z,80.60
2018-11-27T19:37:45.696Z,80.90
2018-11-27T19:40:15.217Z,81.00
2018-11-27T19:42:43.259Z,80.90
2018-11-27T19:45:21.529Z,80.70
2018-11-27T19:47:49.641Z,80.70
2018-11-27T19:50:17.714Z,80.90
2018-11-27T19:52:46.646Z,80.60
2018-11-27T19:55:16.464Z,80.70
2018-11-27T19:57:44.477Z,80.90
2018-11-27T20:00:14.852Z,80.90
2018-11-27T20:02:43.182Z,80.90
2018-11-27T20:05:12.298Z,80.70
2018-11-27T20:07:40.354Z,81.00
2018-11-27T20:10:10.283Z,81.00
2018-11-27T20:15:14.779Z,81.00
2018-11-27T20:17:42.828Z,81.00
2018-11-27T20:20:11.905Z,80.80
2018-11-27T20:22:40.045Z,80.70
2018-11-27T20:25:10.573Z,80.60
2018-11-27T20:27:38.547Z,80.50
2018-11-27T20:30:09.650Z,80.60
2018-11-27T20:32:37.915Z,80.60
2018-11-27T20:35:07.847Z,80.20
2018-11-27T20:40:17.302Z,80.30
2018-11-27T20:42:45.373Z,80.30
2018-11-27T20:45:19.851Z,80.30
2018-11-27T20:47:49.668Z,80.30
2018-11-27T20:50:19.019Z,80.30
2018-11-27T20:52:47.128Z,80.20
2018-11-27T20:55:15.610Z,80.40
2018-11-27T20:57:53.010Z,80.20
2018-11-27T21:00:23.235Z,80.00
2018-11-27T21:02:52.952Z,80.00
2018-11-27T21:05:21.018Z,79.90
2018-11-27T21:07:49.137Z,79.80
2018-11-27T21:10:17.122Z,79.80
2018-11-27T21:12:45.236Z,80.80
2018-11-27T21:15:15.098Z,80.00
2018-11-27T21:17:43.045Z,79.60
2018-11-27T21:20:12.242Z,79.50
2018-11-27T21:22:40.438Z,79.50
2018-11-27T21:25:13.719Z,79.60
2018-11-27T21:27:42.584Z,79.50
2018-11-27T21:30:13.747Z,79.50
2018-11-27T21:32:42.030Z,79.80
2018-11-27T21:35:11.413Z,79.70
2018-11-27T21:37:39.552Z,79.80
2018-11-27T21:40:09.240Z,79.90
2018-11-27T21:42:37.221Z,79.90
2018-11-27T21:52:11.484Z,80.10
2018-11-27T21:54:39.452Z,81.10
2018-11-27T21:57:07.457Z,81.40
2018-11-27T21:59:35.525Z,81.70
2018-11-27T22:02:03.514Z,81.70
2018-11-27T22:04:31.498Z,81.80
2018-11-27T22:06:59.470Z,81.70
2018-11-27T22:09:27.645Z,81.60
2018-11-27T22:11:55.662Z,81.40
2018-11-27T22:14:23.709Z,81.10
2018-11-27T22:16:51.903Z,81.00
2018-11-27T22:19:19.849Z,80.70
2018-11-27T22:21:47.833Z,81.40
2018-11-27T22:24:15.805Z,81.60
2018-11-27T22:26:43.860Z,81.60
2018-11-27T22:29:11.920Z,81.40
2018-11-27T22:31:39.913Z,81.10
2018-11-27T22:34:07.873Z,81.20
2018-11-27T22:36:35.834Z,81.10
2018-11-27T22:39:04.630Z,80.90
2018-11-27T22:41:32.572Z,81.00
2018-11-27T22:44:00.589Z,81.30
2018-11-27T22:46:28.945Z,81.60
2018-11-27T22:48:56.900Z,81.60
2018-11-27T22:51:24.928Z,81.60
2018-11-27T22:53:53.297Z,82.30
2018-11-27T22:56:21.260Z,81.70
2018-11-27T22:58:49.212Z,81.70
2018-11-27T23:01:20.767Z,81.60
2018-11-27T23:03:48.748Z,81.60
2018-11-27T23:06:16.720Z,81.40
2018-11-27T23:08:44.757Z,81.50
2018-11-27T23:11:12.761Z,81.60
2018-11-27T23:13:40.783Z,81.60
2018-11-27T23:16:08.725Z,82.30
2018-11-27T23:18:36.746Z,81.70
2018-11-27T23:21:04.715Z,81.80
2018-11-27T23:23:32.681Z,81.80
2018-11-27T23:26:00.751Z,81.80
2018-11-27T23:28:28.697Z,81.80
2018-11-27T23:30:56.693Z,81.90
2018-11-27T23:33:24.746Z,81.70
2018-11-27T23:35:53.114Z,81.10
2018-11-27T23:38:21.215Z,80.60
2018-11-27T23:40:49.256Z,80.60
2018-11-27T23:43:17.993Z,80.70
2018-11-27T23:45:46.040Z,81.70
2018-11-27T23:48:17.398Z,80.60
2018-11-27T23:50:45.478Z,80.00
2018-11-27T23:53:13.496Z,79.60
2018-11-27T23:55:41.455Z,79.90
2018-11-27T23:58:09.582Z,80.00
